Hlavní strana
METAR-TAF:

METAR-TAF

Letiště :

Leknes, Norsko

zeměpisná šířka: 68-09N, zeměpisná délka: 013-37E, výška: 2 m

Aktuální stav počasí

Zpráva byla vytvořena před 1 hodinou a 12 minutami, v 21:50 UTC
Jižní vítr 13 kt
Teplota 10°C
Vlhkost vzduchu 87%
Tlak 1013 hPa
Viditelnost 10 km a více
Skoro jasno ve výšce 3500 ft
Oblačno až skoro zataženo ve výšce 10000 ft

METAR: ENLK 152150Z 19013KT 9999 FEW035 BKN100 10/08 Q1013

Čas: 00:02 (23:02 UTC)


TAF: chybějící

Stav a předpovědi počasí z více než 4 000 letišť (zprávy METAR a TAF).

Červené a žluté tečky na mapě představují dostupné meteorologické stanice.

Když kurzor umístíte na tečku, zobrazí se název stanice.

Pak kliknutím zobrazíte stav a předpověď počasí.

Chcete-li změnit mapu, kliknutím na zelené tlačítko se znaménkem +mapu přiblížíte, kliknutím na zelené tlačítko se znaménkem – mapu oddálíte a kliknutím na zelené šipky přejdete na sousední mapy.


METAR-TAF: